createdAt,value
2018-05-14T00:04:38.905Z,85.40
2018-05-14T00:09:42.113Z,85.60
2018-05-14T00:14:44.641Z,85.50
2018-05-14T00:19:47.116Z,85.70
2018-05-14T00:24:49.568Z,85.80
2018-05-14T00:29:59.684Z,85.90
2018-05-14T00:35:02.220Z,86.10
2018-05-14T00:40:08.267Z,86.00
2018-05-14T00:45:10.738Z,86.00
2018-05-14T00:50:13.178Z,86.00
2018-05-14T00:55:17.385Z,86.00
2018-05-14T01:00:19.844Z,86.00
2018-05-14T01:05:23.077Z,85.90
2018-05-14T01:10:25.517Z,85.80
2018-05-14T01:15:27.974Z,86.00
2018-05-14T01:20:30.430Z,86.10
2018-05-14T01:25:32.969Z,86.20
2018-05-14T01:30:35.413Z,86.10
2018-05-14T01:35:38.638Z,86.50
2018-05-14T01:40:41.218Z,86.50
2018-05-14T01:45:44.426Z,87.40
2018-05-14T01:50:47.647Z,86.80
2018-05-14T01:55:50.097Z,86.60
2018-05-14T02:00:52.549Z,86.90
2018-05-14T02:05:55.097Z,86.80
2018-05-14T02:10:58.232Z,86.20
2018-05-14T02:16:00.681Z,86.10
2018-05-14T02:21:03.151Z,86.20
2018-05-14T02:26:06.670Z,86.50
2018-05-14T02:31:09.943Z,86.60
2018-05-14T02:36:12.429Z,86.60
2018-05-14T02:41:15.663Z,86.60
2018-05-14T02:46:18.134Z,86.50
2018-05-14T02:51:21.353Z,86.10
2018-05-14T02:56:24.571Z,86.40
2018-05-14T03:01:27.039Z,86.20
2018-05-14T03:06:29.494Z,86.80
2018-05-14T03:11:31.938Z,86.20
2018-05-14T03:16:34.391Z,86.00
2018-05-14T03:27:11.366Z,85.80
2018-05-14T03:32:14.708Z,85.80
2018-05-14T03:42:45.074Z,86.00
2018-05-14T03:48:07.694Z,86.00
2018-05-14T03:53:10.158Z,85.80
2018-05-14T03:58:24.433Z,85.90
2018-05-14T04:03:38.950Z,85.80
2018-05-14T04:08:42.332Z,86.80
2018-05-14T04:13:44.786Z,86.80
2018-05-14T04:18:47.235Z,87.00
2018-05-14T04:23:49.689Z,86.90
2018-05-14T04:29:04.755Z,87.00
2018-05-14T04:34:07.253Z,86.30
2018-05-14T04:44:37.954Z,87.10
2018-05-14T04:49:40.432Z,86.70
2018-05-14T04:54:42.958Z,86.80
2018-05-14T04:59:45.411Z,87.60
2018-05-14T05:04:47.948Z,86.90
2018-05-14T05:10:09.288Z,86.30
2018-05-14T05:15:11.754Z,86.20
2018-05-14T05:20:14.201Z,86.30
2018-05-14T05:25:17.423Z,86.20
2018-05-14T05:30:20.643Z,85.90
2018-05-14T05:35:23.091Z,86.60
2018-05-14T05:40:25.582Z,85.50
2018-05-14T05:45:28.025Z,85.80
2018-05-14T05:50:30.637Z,85.70
2018-05-14T05:55:33.137Z,86.10
2018-05-14T06:00:36.247Z,86.40
2018-05-14T06:05:38.699Z,86.10
2018-05-14T06:10:41.906Z,84.70
2018-05-14T06:15:45.158Z,84.80
2018-05-14T06:20:51.758Z,84.60
2018-05-14T06:25:54.190Z,84.80
2018-05-14T06:30:57.579Z,84.80
2018-05-14T06:36:00.037Z,84.60
2018-05-14T06:41:02.503Z,84.10
2018-05-14T06:46:05.741Z,83.10
2018-05-14T06:51:08.259Z,82.90
2018-05-14T06:56:10.724Z,82.00
2018-05-14T07:01:13.209Z,81.60
2018-05-14T07:06:15.689Z,81.20
2018-05-14T07:11:18.940Z,81.30
2018-05-14T07:16:24.357Z,81.20
2018-05-14T07:21:27.658Z,78.50
2018-05-14T07:26:30.124Z,78.40
2018-05-14T07:31:32.559Z,77.40
2018-05-14T07:36:35.098Z,78.60
2018-05-14T07:41:37.567Z,78.30
2018-05-14T07:46:40.053Z,79.30
2018-05-14T07:51:42.470Z,76.80
2018-05-14T07:56:44.920Z,75.20
2018-05-14T08:01:47.449Z,74.00
2018-05-14T08:06:49.881Z,74.50
2018-05-14T08:11:52.324Z,74.70
2018-05-14T08:16:54.841Z,74.40
2018-05-14T08:21:57.308Z,74.20
2018-05-14T08:26:59.746Z,66.50
2018-05-14T08:32:02.283Z,62.00
2018-05-14T08:37:04.800Z,61.10
2018-05-14T08:42:07.185Z,59.80
2018-05-14T08:47:09.774Z,60.00
2018-05-14T08:52:12.331Z,59.40
2018-05-14T08:57:15.529Z,58.50
2018-05-14T09:02:18.099Z,57.80
2018-05-14T09:07:44.296Z,57.70
2018-05-14T09:12:50.468Z,57.30
2018-05-14T09:17:53.673Z,60.00
2018-05-14T09:22:56.895Z,57.30
2018-05-14T09:28:00.103Z,57.20
2018-05-14T09:33:04.989Z,54.40
2018-05-14T09:38:07.444Z,54.40
2018-05-14T09:43:10.655Z,52.20
2018-05-14T09:48:15.474Z,52.70
2018-05-14T09:53:17.904Z,52.80
2018-05-14T09:58:20.415Z,52.90
2018-05-14T10:03:22.946Z,53.40
2018-05-14T10:08:25.373Z,52.80
2018-05-14T10:13:28.591Z,49.80
2018-05-14T10:18:31.770Z,49.80
2018-05-14T10:23:34.283Z,48.30
2018-05-14T10:28:36.774Z,48.10
2018-05-14T10:33:39.252Z,47.80
2018-05-14T10:38:41.699Z,46.80
2018-05-14T10:43:44.360Z,47.30
2018-05-14T10:48:47.718Z,44.90
2018-05-14T10:54:14.511Z,44.70
2018-05-14T10:59:17.155Z,44.40
2018-05-14T11:04:19.609Z,44.60
2018-05-14T11:09:22.053Z,43.70
2018-05-14T11:14:24.497Z,45.10
2018-05-14T11:19:26.943Z,43.10
2018-05-14T11:24:29.420Z,41.40
2018-05-14T11:29:31.865Z,42.00
2018-05-14T11:34:34.442Z,42.90
2018-05-14T11:39:36.901Z,43.30
2018-05-14T11:44:40.630Z,41.20
2018-05-14T11:49:43.149Z,41.20
2018-05-14T11:59:54.032Z,41.40
2018-05-14T12:04:56.474Z,41.20
2018-05-14T12:09:58.949Z,41.60
2018-05-14T12:15:01.367Z,39.00
2018-05-14T12:20:03.823Z,38.90
2018-05-14T12:25:06.291Z,36.90
2018-05-14T12:30:08.733Z,36.40
2018-05-14T12:35:11.175Z,36.70
2018-05-14T12:40:13.618Z,36.20
2018-05-14T12:50:24.972Z,35.00
2018-05-14T12:55:27.429Z,34.80
2018-05-14T13:00:29.861Z,36.20
2018-05-14T13:05:33.182Z,36.50
2018-05-14T13:10:35.609Z,35.80
2018-05-14T13:15:38.205Z,35.80
2018-05-14T13:20:40.655Z,34.80
2018-05-14T13:25:43.167Z,34.10
2018-05-14T13:30:45.711Z,34.20
2018-05-14T13:35:49.290Z,35.90
2018-05-14T13:40:51.760Z,34.90
2018-05-14T13:45:55.094Z,35.40
2018-05-14T13:50:57.592Z,35.30
2018-05-14T13:56:00.984Z,33.40
2018-05-14T14:01:03.462Z,33.20
2018-05-14T14:06:05.901Z,34.70
2018-05-14T14:11:08.352Z,33.10
2018-05-14T14:16:11.557Z,33.20
2018-05-14T14:21:14.004Z,32.90
2018-05-14T14:26:16.476Z,32.50
2018-05-14T14:31:18.922Z,33.20
2018-05-14T14:36:21.412Z,34.20
2018-05-14T14:41:23.822Z,34.00
2018-05-14T14:46:27.050Z,36.00
2018-05-14T14:51:30.252Z,36.90
2018-05-14T14:56:33.459Z,37.10
2018-05-14T15:01:36.675Z,37.00
2018-05-14T15:06:39.886Z,36.30
2018-05-14T15:11:43.227Z,36.50
2018-05-14T15:16:45.680Z,36.40
2018-05-14T15:21:48.887Z,38.20
2018-05-14T15:26:53.914Z,37.50
2018-05-14T15:31:56.610Z,36.50
2018-05-14T15:36:59.061Z,37.60
2018-05-14T15:42:01.513Z,37.00
2018-05-14T15:47:04.739Z,35.60
2018-05-14T15:52:07.171Z,35.50
2018-05-14T15:57:09.675Z,36.20
2018-05-14T16:02:12.116Z,36.80
2018-05-14T16:07:15.334Z,36.80
2018-05-14T16:12:18.702Z,36.00
2018-05-14T16:17:21.253Z,36.00
2018-05-14T16:22:23.702Z,34.20
2018-05-14T16:27:26.149Z,34.30
2018-05-14T16:32:28.593Z,34.60
2018-05-14T16:37:31.047Z,34.90
2018-05-14T16:42:33.518Z,34.40
2018-05-14T16:47:35.978Z,34.50
2018-05-14T16:52:38.427Z,34.20
2018-05-14T16:57:40.926Z,34.40
2018-05-14T17:02:43.337Z,33.90
2018-05-14T17:07:45.799Z,33.40
2018-05-14T17:12:48.702Z,34.00
2018-05-14T17:17:51.180Z,34.30
2018-05-14T17:22:53.633Z,35.10
2018-05-14T17:27:56.094Z,35.00
2018-05-14T17:32:59.683Z,35.20
2018-05-14T17:38:02.266Z,35.00
2018-05-14T17:43:05.496Z,34.70
2018-05-14T17:48:07.946Z,34.60
2018-05-14T17:53:10.409Z,35.10
2018-05-14T17:58:12.866Z,34.80
2018-05-14T18:03:15.330Z,34.40
2018-05-14T18:08:18.658Z,35.40
2018-05-14T18:13:21.878Z,35.70
2018-05-14T18:18:24.381Z,35.70
2018-05-14T18:23:26.817Z,36.00
2018-05-14T18:28:35.052Z,36.10
2018-05-14T18:33:45.239Z,37.40
2018-05-14T18:38:47.698Z,37.00
2018-05-14T18:43:50.153Z,37.80
2018-05-14T18:48:52.645Z,37.60
2018-05-14T18:53:55.146Z,36.70
2018-05-14T18:58:57.595Z,36.80
2018-05-14T19:04:00.349Z,36.70
2018-05-14T19:09:02.823Z,37.60
2018-05-14T19:14:05.273Z,37.30
2018-05-14T19:19:07.746Z,37.90
2018-05-14T19:24:10.197Z,38.90
2018-05-14T19:29:18.527Z,39.10
2018-05-14T19:34:26.598Z,39.10
2018-05-14T19:39:36.236Z,40.80
2018-05-14T19:44:38.682Z,40.80
2018-05-14T19:49:41.877Z,42.20
2018-05-14T19:54:44.356Z,42.20
2018-05-14T19:59:46.877Z,42.70
2018-05-14T20:04:49.391Z,43.40
2018-05-14T20:09:51.842Z,43.50
2018-05-14T20:14:55.103Z,43.60
2018-05-14T20:19:57.582Z,43.60
2018-05-14T20:25:00.085Z,43.90
2018-05-14T20:30:02.762Z,44.90
2018-05-14T20:35:05.972Z,45.00
2018-05-14T20:40:09.237Z,47.00
2018-05-14T20:45:11.745Z,46.80
2018-05-14T20:50:14.138Z,48.30
2018-05-14T20:55:16.626Z,48.80
2018-05-14T21:00:19.061Z,49.50
2018-05-14T21:05:22.364Z,52.10
2018-05-14T21:10:25.583Z,52.80
2018-05-14T21:15:28.866Z,53.30
2018-05-14T21:20:32.825Z,53.70
2018-05-14T21:25:35.270Z,53.70
2018-05-14T21:30:37.975Z,53.80
2018-05-14T21:35:40.518Z,53.60
2018-05-14T21:40:43.743Z,53.00
2018-05-14T21:45:46.205Z,52.70
2018-05-14T21:50:49.420Z,53.70
2018-05-14T21:55:52.699Z,54.00
2018-05-14T22:00:55.262Z,53.90
2018-05-14T22:05:58.673Z,54.00
2018-05-14T22:11:01.109Z,54.70
2018-05-14T22:16:03.622Z,55.30
2018-05-14T22:21:06.835Z,56.30
2018-05-14T22:26:10.282Z,56.90
2018-05-14T22:31:12.663Z,56.80
2018-05-14T22:36:15.186Z,57.40
2018-05-14T22:41:17.619Z,57.60
2018-05-14T22:46:20.839Z,59.40
2018-05-14T22:51:23.457Z,58.80
2018-05-14T22:56:25.928Z,58.60
2018-05-14T23:01:29.154Z,58.60
2018-05-14T23:06:31.635Z,58.40
2018-05-14T23:11:34.949Z,58.70
2018-05-14T23:16:38.162Z,58.80
2018-05-14T23:21:49.441Z,57.80
2018-05-14T23:26:52.650Z,58.40
2018-05-14T23:31:59.587Z,58.10
2018-05-14T23:37:02.065Z,57.80
2018-05-14T23:42:04.572Z,57.90
2018-05-14T23:47:07.031Z,58.10
2018-05-14T23:52:10.343Z,57.80
2018-05-14T23:57:13.597Z,58.40
